Hovedside
METAR-TAF:

METAR-TAF

Lufthavner :

Såtenäs, Sverige

breddegrad: 58-26N, lengdegrad: 012-42E, høyde over havet: 54 m

Gjeldene værobservasjon

Denne rapporten ble laget for 36 minutter siden, klokken 04:20 UTC
Vind 16 kt fra Nord-nordvest
Temperatur 11°C
Luftfuktighet 100%
Trykk 1001 hPa
Sikt: 7000 m
Brutte skyer i en høyde av 300 ft
regn, duskregn

METAR: ESIB 210420Z 34016KT 7000 RADZ BKN003 11/11 Q1001

Tid: 06:56 (04:56 UTC)

Varsel

Denne rapporten ble laget for 14 timer og 56 minutter siden, klokken 14:00 UTC
Varsel gyldig fra 20. klokken 14 UTC til 20. klokken 15 UTC
Vind 2 kt fra skiftende retning
Sikt 10 km eller mer
Brutte skyer i en høyde av 2500 ft
lett regn
Sannsynlighet 30%
fra 20. klokken 14 UTC til 20. klokken 15 UTC
Vind 5 kt fra Nord med vindkast opp mot 15 kt
Sikt: 3500 m
Brutte skyer i en høyde av 500 ft
Brutte skyer i en høyde av 4000 ft, Bygeskyer.
regnbyger

TAF: ESIB 201400Z 2014/2015 VRB02KT 9999 -RA BKN025 PROB30 2014/2015 35005G15KT 3500 SHRA BKN005 BKN040CB RMK MIL

Værobservasjoner og værvarsel for over 4000 flyplasser (METAR- og TAF-rapporter).

Tilgjengelige stasjoner er representert av de røde og gule prikkene på kartet.

Hold musepekeren over prikken for å se navnet på stasjonen.

Klikk så for å se værobservasjoner og -varsler.

For å forandre kartet kan du klikke på den grønne knappen med svart kryss for å zoome inn, på den grønne knappen med strek for å zoome ut, eller på de grønne pilene for å se tilstøtende kart.


METAR-TAF: